Main page
METAR-TAF:

METAR-TAF

Airports :

Bahawalpur Airport

Bahawalpur, Pakistan

latitude: 29-20-53N, longitude: 71-43-04E, elevation: 119 m

METAR: missing

Time: 08:33 (03:33 UTC)

Forecast

The report was made 5 hours and 48 minutes ago, at 21:45 UTC
Forecast valid from 27 at 00 UTC to 27 at 18 UTC
Wind 10 kt from the Southwest
Visibility: 4000 m
haze
Probability 30% :
Temporary
from 27 at 06 UTC to 27 at 10 UTC
Wind 20 kt from the Southwest
Visibility: 3000 m
Low drifting dust

TAF: OPBW 262145Z 2700/2718 23010KT 4000 HZ NSC TN25/2701Z TX42/2710Z PROB30 TEMPO 2706/2710 23020KT 3000 DRDU NSC

Weather observations and forecasts of more than 4000 airports (METAR and TAF reports).

The available stations are represented by yellow and red dots on the map.

Hover mouse over dot to see the name of the station.

Then click to see weather observations and forecasts.

To change the map : click on the green buttons with a black cross to zoom in, on the green button with a dash to zoom out, or on the green arrows for adjacent maps.


METAR-TAF: